Tropical Cyclones
[Index]
Main Index Home Page Stock Weather Photos Extreme Storms Discussion Storm News and Storm Chasing Reports Tropical Cyclones / Hurricanes / Typhoons Weather Data and Links Wild Fires / Bushfires Weather Observation Techniques Weather Picture Catalogue Tornado Pictures and Reports Stock Video Footage and DVDs for sale
Season 1959-1960 Tropical Cyclone 196015 Track Map
Season 1959-1960 Summaries: [BoM-AU] [JTWC-AU] [JTWC-SIO] [JTWC-SPAC] [JTWC-SH]
<<- Previous TC | JTWC 1959-1960 Season | Next TC ->>

click for intensity scale information  Lat/long Grid: Show Hide

 Date Labels: Show Hide

Joint Typhoon Warning Centre Cyclone Data

Name: 196015
Number: 385 / 6015

01 Mar 1960 00:00 UTC to 08 Mar 1960 00:00 UTC

    date/time    lat    long     hPa   cat  kts
1960-03-01 00   22.9   155.7                              
1960-03-01 06   23.5   156.1                              
1960-03-01 12   24.0   156.5                              
1960-03-01 18   24.4   156.8                              
1960-03-02 00   24.8   157.2                              
1960-03-02 06   25.5   157.7                              
1960-03-02 12   26.5   158.3                              
1960-03-02 18   27.7   158.7                              
1960-03-03 00   28.9   159.0                              
1960-03-03 06   29.8   158.9                              
1960-03-03 12   30.1   158.7                              
1960-03-03 18   29.8   158.2                              
1960-03-04 00   29.3   157.9                              
1960-03-04 06   28.6   158.5                              
1960-03-04 12   27.8   159.6                              
1960-03-04 18   27.3   160.7                              
1960-03-05 00   27.8   161.9                              
1960-03-05 06   29.6   162.7                              
1960-03-05 12   31.5   163.0                              
1960-03-05 18   33.3   162.1                              
1960-03-06 00   34.9   161.0                              
1960-03-06 06   34.4   160.9                              
1960-03-06 12   33.0   161.3                              
1960-03-06 18   32.7   162.5                              
1960-03-07 00   33.2   163.8                              
1960-03-07 06   35.1   164.4                              
1960-03-07 12   37.0   164.6                              
1960-03-07 18   38.5   164.2                              
1960-03-08 00   39.7   163.2                              
Winds are 1-min average.

Tropical cyclone tracks developed by Michael Bath using data from the Joint Typhoon Warning Centre Best Tracks and Google Maps.


[Australian Severe Weather index] [Copyright Notice] [Email Contacts] [Search This Site] [Privacy Policy]
Document: tropical_cyclone_196015.htm Updated: 18 September 2016